EVLA/LPX METAR and TAF weather

Enter ICAO airport designator
Station Type Date Time Source
EVLA METAR 2020/11/27 13:50 UTC NOAA

EVLA 271350Z AUTO 36007G17KT 330V040 9999 -RA FEW020/// SCT026/// BKN034/// 04/02 Q1015


Station Type Date Time Source
EVLA Decoded METAR 2020/11/27 13:50 UTC NOAA

Liepaja International Airport, Latvia (EVLA) 56-31N 021-05E
Nov 27, 2020 - 08:50 AM EST / 2020.11.27 1350 UTC
Wind: from the N (360 degrees) at 8 MPH (7 KT) gusting to 20 MPH (17 KT) (direction variable):0
Visibility: greater than 7 mile(s):0
Sky conditions: mostly cloudy
Weather: light rain
Temperature: 39 F (4 C)
Dew Point: 35 F (2 C)
Relative Humidity: 86%
Pressure (altimeter): 29.97 in. Hg (1015 hPa)
ob: EVLA 271350Z AUTO 36007G17KT 330V040 9999 -RA FEW020/// SCT026/// BKN034/// 04/02 Q1015
cycle: 14

Station Type Date Time Source
EVLA TAF 2020/11/27 15:03 UTC NOAA

TAF TAF EVLA 271400Z 2715/2815 01007KT 9999 BKN020
TEMPO 2715/2721 35012G25KT 4000 SHRA BKN010 SCT015CB
TEMPO 2721/2809 SCT015CB
TEMPO 2809/2815 BKN010 SCT015CB

Example: see airport list